Time;durP1;ratioP1;P1;durP2;ratioP2;P2;SDS_P1;SDS_P2;PMS_P1;PMS_P2;Temp;Humidity;BMP_temperature;BMP_pressure;BME280_temperature;BME280_humidity;BME280_pressure;Samples;Min_cycle;Max_cycle;Signal;HPM_P1;HPM_P2
2022/11/29 00:00:54;;;;;;;17.07;15.33;;;8.20;99.90;;;;;;5021186;28;20193;-80
2022/11/29 00:03:20;;;;;;;17.53;15.80;;;8.20;99.90;;;;;;5020838;28;20667;-79
2022/11/29 00:05:45;;;;;;;17.63;15.83;;;8.20;99.90;;;;;;5023500;28;20670;-80
2022/11/29 00:08:12;;;;;;;17.07;15.37;;;8.10;99.90;;;;;;5022928;28;20190;-80
2022/11/29 00:10:38;;;;;;;16.93;15.43;;;8.20;99.90;;;;;;5022814;28;20192;-80
2022/11/29 00:13:04;;;;;;;15.80;14.13;;;8.10;99.90;;;;;;5023024;28;20213;-80
2022/11/29 00:15:34;;;;;;;15.20;13.67;;;8.10;99.90;;;;;;5022329;28;20253;-80
2022/11/29 00:17:59;;;;;;;14.87;13.47;;;8.20;99.90;;;;;;5022538;28;20224;-79
2022/11/29 00:20:25;;;;;;;13.93;12.70;;;8.10;99.90;;;;;;5016880;28;20194;-80
2022/11/29 00:22:51;;;;;;;15.03;13.47;;;8.20;99.90;;;;;;5022478;28;20206;-80
2022/11/29 00:25:16;;;;;;;11.87;10.80;;;8.20;99.90;;;;;;5023175;28;20690;-80
2022/11/29 00:27:42;;;;;;;13.77;12.10;;;8.20;99.90;;;;;;5021639;28;20213;-80
2022/11/29 00:30:08;;;;;;;12.60;11.43;;;8.30;99.90;;;;;;5022440;28;20184;-77
2022/11/29 00:32:34;;;;;;;12.87;11.60;;;8.30;99.90;;;;;;5021970;28;20218;-81
2022/11/29 00:35:00;;;;;;;12.70;11.50;;;8.20;99.90;;;;;;5022046;28;20217;-80
2022/11/29 00:37:26;;;;;;;11.63;10.60;;;8.10;99.90;;;;;;5022178;28;20200;-80
2022/11/29 00:39:51;;;;;;;14.10;12.10;;;8.10;99.90;;;;;;5022232;28;20181;-80
2022/11/29 00:42:17;;;;;;;12.83;11.63;;;8.00;99.90;;;;;;5021754;28;20277;-79
2022/11/29 00:44:42;;;;;;;13.57;12.27;;;8.00;99.90;;;;;;5021908;28;20186;-80
2022/11/29 00:47:08;;;;;;;12.90;11.70;;;7.90;99.90;;;;;;5022620;28;20216;-79
2022/11/29 00:49:34;;;;;;;13.20;11.90;;;7.90;99.90;;;;;;5022664;28;20281;-80
2022/11/29 00:52:00;;;;;;;13.10;11.90;;;7.90;99.90;;;;;;5022044;28;20560;-81
2022/11/29 00:54:26;;;;;;;12.60;11.40;;;8.10;99.90;;;;;;5021764;28;20185;-79
2022/11/29 00:56:51;;;;;;;13.57;12.17;;;8.00;99.90;;;;;;5022247;28;20189;-80
2022/11/29 00:59:17;;;;;;;13.60;11.97;;;7.90;99.90;;;;;;5021883;28;20267;-80
2022/11/29 01:01:43;;;;;;;15.23;13.63;;;8.00;99.90;;;;;;5022478;28;20232;-80
2022/11/29 01:04:09;;;;;;;15.40;13.90;;;7.90;99.90;;;;;;5022211;28;20186;-80
2022/11/29 01:06:34;;;;;;;16.63;14.93;;;8.00;99.90;;;;;;5021583;28;20659;-80
2022/11/29 01:09:00;;;;;;;19.73;14.87;;;7.90;99.90;;;;;;5020999;28;20196;-80
2022/11/29 01:11:26;;;;;;;18.30;14.93;;;8.00;99.90;;;;;;5021360;28;20232;-80
2022/11/29 01:13:58;;;;;;;16.20;14.60;;;7.90;99.90;;;;;;5021587;28;20297;-80
2022/11/29 01:16:24;;;;;;;20.40;16.27;;;7.80;99.90;;;;;;5021587;28;20239;-80
2022/11/29 01:18:50;;;;;;;17.67;15.73;;;7.90;99.90;;;;;;5021708;28;20243;-80
2022/11/29 01:21:21;;;;;;;20.33;16.23;;;7.80;99.90;;;;;;5004061;28;20210;-80
2022/11/29 01:23:48;;;;;;;19.10;15.43;;;7.70;99.90;;;;;;5022114;28;20190;-80
2022/11/29 01:26:20;;;;;;;20.23;14.87;;;7.80;99.90;;;;;;5020622;28;20181;-79
2022/11/29 01:28:47;;;;;;;17.77;14.53;;;7.90;99.90;;;;;;5022247;28;20253;-80
2022/11/29 01:31:17;;;;;;;16.10;14.37;;;7.90;99.90;;;;;;5020964;28;20202;-79
2022/11/29 01:33:43;;;;;;;16.33;14.17;;;8.10;99.90;;;;;;5021331;28;20974;-80
2022/11/29 01:36:10;;;;;;;16.23;13.77;;;8.10;99.90;;;;;;5021397;28;20189;-80
2022/11/29 01:38:36;;;;;;;15.13;13.53;;;8.20;99.90;;;;;;5021393;28;20186;-80
2022/11/29 01:41:04;;;;;;;18.53;14.03;;;8.20;99.90;;;;;;5019375;28;20598;-80
2022/11/29 01:43:31;;;;;;;16.27;13.60;;;8.20;99.90;;;;;;5000146;28;20277;-80
2022/11/29 01:45:56;;;;;;;15.83;13.20;;;8.10;99.90;;;;;;5020819;28;20543;-80
2022/11/29 01:48:28;;;;;;;14.80;13.30;;;8.00;99.90;;;;;;5021858;28;20198;-79
2022/11/29 01:50:59;;;;;;;15.27;13.40;;;8.10;99.90;;;;;;5022686;28;20209;-79
2022/11/29 01:53:25;;;;;;;16.20;12.77;;;8.00;99.90;;;;;;5020476;28;20196;-80
2022/11/29 01:55:58;;;;;;;16.00;12.53;;;8.10;99.90;;;;;;5019345;28;20189;-79
2022/11/29 01:58:24;;;;;;;14.83;12.53;;;8.10;99.90;;;;;;5019507;28;20185;-80
2022/11/29 02:00:50;;;;;;;14.00;12.37;;;8.10;99.90;;;;;;5019609;28;20540;-79
2022/11/29 02:03:17;;;;;;;13.97;11.47;;;8.10;99.90;;;;;;5019047;28;20243;-80
2022/11/29 02:05:49;;;;;;;14.00;11.90;;;8.10;99.90;;;;;;5018142;28;20249;-80
2022/11/29 02:08:20;;;;;;;13.03;11.60;;;8.10;99.90;;;;;;5020318;28;20181;-81
2022/11/29 02:11:06;;;;;;;12.27;10.70;;;8.10;99.90;;;;;;5021780;28;20243;-81
2022/11/29 02:14:27;;;;;;;13.80;12.17;;;8.00;99.90;;;;;;5020793;28;20412;-80
2022/11/29 02:17:18;;;;;;;15.23;11.63;;;8.20;99.90;;;;;;4978000;28;20216;-80
2022/11/29 02:20:29;;;;;;;15.13;11.60;;;8.00;99.90;;;;;;5009553;28;20739;-80
2022/11/29 02:23:09;;;;;;;16.77;12.13;;;8.00;99.90;;;;;;4999901;28;20232;-80
2022/11/29 02:26:01;;;;;;;12.87;11.73;;;8.20;99.90;;;;;;5020954;28;20199;-81
2022/11/29 02:28:39;;;;;;;14.07;11.23;;;8.20;99.90;;;;;;5015724;28;20193;-80
2022/11/29 02:31:16;;;;;;;13.00;10.87;;;8.30;99.90;;;;;;5004357;28;20322;-81
2022/11/29 02:34:06;;;;;;;13.90;12.40;;;8.30;99.90;;;;;;5021410;28;20204;-80
2022/11/29 02:36:54;;;;;;;12.80;11.47;;;8.30;99.90;;;;;;5021266;28;20660;-79
2022/11/29 02:39:56;;;;;;;14.87;11.23;;;8.20;99.90;;;;;;5018550;28;20196;-80
2022/11/29 02:42:31;;;;;;;13.63;10.70;;;8.30;99.90;;;;;;5003490;28;20244;-80
2022/11/29 02:45:31;;;;;;;13.03;10.67;;;8.30;99.90;;;;;;5025799;28;20331;-80
2022/11/29 02:48:15;;;;;;;11.90;10.10;;;8.30;99.90;;;;;;5023878;28;20186;-78
2022/11/29 02:50:56;;;;;;;14.77;10.87;;;8.30;99.90;;;;;;5019529;28;20243;-79
2022/11/29 02:53:57;;;;;;;13.90;10.00;;;8.30;99.90;;;;;;5023135;28;20742;-79
2022/11/29 02:56:54;;;;;;;12.23;10.23;;;8.30;99.90;;;;;;4968529;28;20206;-79
2022/11/29 02:59:43;;;;;;;13.87;9.97;;;8.40;99.90;;;;;;5022561;28;20260;-79
2022/11/29 03:02:34;;;;;;;14.20;10.13;;;8.40;99.90;;;;;;5022457;28;20255;-80
2022/11/29 03:05:09;;;;;;;14.77;9.97;;;8.30;99.90;;;;;;5019548;28;20181;-79
2022/11/29 03:07:34;;;;;;;13.67;9.93;;;8.30;99.90;;;;;;5005571;28;20239;-78
2022/11/29 03:10:42;;;;;;;11.63;9.87;;;8.30;99.90;;;;;;5007312;28;20651;-78
2022/11/29 03:13:19;;;;;;;14.03;10.23;;;8.30;99.90;;;;;;4997558;28;20225;-80
2022/11/29 03:15:57;;;;;;;13.43;10.40;;;8.10;99.90;;;;;;5016001;28;20178;-81
2022/11/29 03:18:49;;;;;;;12.87;9.33;;;8.10;99.90;;;;;;5014091;28;20227;-80
2022/11/29 03:21:43;;;;;;;13.37;9.50;;;8.00;99.90;;;;;;5025601;28;20213;-80
2022/11/29 03:24:17;;;;;;;14.37;9.57;;;7.80;99.90;;;;;;5030611;28;20220;-80
2022/11/29 03:26:54;;;;;;;13.80;9.43;;;7.90;99.90;;;;;;5024692;28;20190;-79
2022/11/29 03:29:57;;;;;;;12.97;8.63;;;8.10;99.90;;;;;;5014752;28;20967;-80
2022/11/29 03:32:38;;;;;;;14.60;10.03;;;8.10;99.90;;;;;;5019157;28;20221;-80
2022/11/29 03:35:40;;;;;;;14.07;9.10;;;8.10;99.90;;;;;;5023339;28;20185;-80
2022/11/29 03:38:27;;;;;;;14.00;9.37;;;7.90;99.90;;;;;;5023052;28;20698;-79
2022/11/29 03:41:21;;;;;;;11.37;8.97;;;7.90;99.90;;;;;;5022225;28;20216;-80
2022/11/29 03:44:01;;;;;;;11.53;8.90;;;8.00;99.90;;;;;;5028945;28;20228;-80
2022/11/29 03:46:59;;;;;;;13.90;8.97;;;8.10;99.90;;;;;;5028783;28;20189;-80
2022/11/29 03:49:55;;;;;;;12.87;8.97;;;8.10;99.90;;;;;;5009260;28;20201;-81
2022/11/29 03:52:25;;;;;;;11.67;8.80;;;7.90;99.90;;;;;;5014909;28;20236;-80
2022/11/29 03:55:13;;;;;;;13.13;8.87;;;8.00;99.90;;;;;;5023690;28;20189;-80
2022/11/29 03:57:41;;;;;;;11.77;8.43;;;8.00;99.90;;;;;;5021019;28;20196;-80
2022/11/29 04:00:11;;;;;;;11.33;9.00;;;8.10;99.90;;;;;;5024875;28;20264;-80
2022/11/29 04:03:11;;;;;;;11.23;8.60;;;8.10;99.90;;;;;;5024453;28;20225;-80
2022/11/29 04:05:58;;;;;;;14.17;8.40;;;8.00;99.90;;;;;;5015343;28;20186;-80
2022/11/29 04:08:48;;;;;;;11.03;8.73;;;8.10;99.90;;;;;;5020012;28;20239;-81
2022/11/29 04:11:53;;;;;;;11.40;8.47;;;8.10;99.90;;;;;;5022569;28;20265;-81
2022/11/29 04:14:49;;;;;;;8.87;8.00;;;8.10;99.90;;;;;;5020981;28;20229;-80
2022/11/29 04:17:15;;;;;;;12.33;8.60;;;8.00;99.90;;;;;;5025680;28;20162;-80
2022/11/29 04:20:24;;;;;;;13.23;7.77;;;7.90;99.90;;;;;;5026076;28;20194;-80
2022/11/29 04:23:05;;;;;;;12.70;7.70;;;8.10;99.90;;;;;;4925420;29;20748;-79
2022/11/29 04:26:05;;;;;;;11.53;8.23;;;8.10;99.90;;;;;;4924589;29;20208;-80
2022/11/29 04:28:55;;;;;;;12.87;8.03;;;7.90;99.90;;;;;;4996133;28;20352;-80
2022/11/29 04:31:47;;;;;;;10.80;7.80;;;7.90;99.90;;;;;;5024543;28;20236;-80
2022/11/29 04:34:20;;;;;;;8.50;7.57;;;7.80;99.90;;;;;;5024074;28;20197;-80
2022/11/29 04:37:02;;;;;;;7.67;6.57;;;7.80;99.90;;;;;;5024233;28;20339;-80
2022/11/29 04:39:41;;;;;;;8.90;7.80;;;7.90;99.90;;;;;;5009379;28;20292;-78
2022/11/29 04:42:42;;;;;;;7.03;5.77;;;8.00;99.90;;;;;;5023706;28;20704;-80
2022/11/29 04:45:58;;;;;;;8.53;6.73;;;8.00;99.90;;;;;;4972292;28;20655;-80
2022/11/29 04:49:11;;;;;;;8.70;6.57;;;7.80;99.90;;;;;;4985825;28;20961;-79
2022/11/29 04:51:55;;;;;;;8.70;6.20;;;7.90;99.90;;;;;;4997425;28;20264;-79
2022/11/29 04:54:48;;;;;;;8.10;6.70;;;7.90;99.90;;;;;;5018363;28;20185;-79
2022/11/29 04:57:54;;;;;;;9.33;6.33;;;7.80;99.90;;;;;;5019722;28;20281;-80
2022/11/29 05:00:23;;;;;;;7.20;6.17;;;7.80;99.90;;;;;;5021124;28;20231;-79
2022/11/29 05:03:03;;;;;;;8.30;5.70;;;7.70;99.90;;;;;;5021918;28;20713;-79
2022/11/29 05:06:03;;;;;;;7.70;5.53;;;7.70;99.90;;;;;;5020105;28;20189;-79
2022/11/29 05:08:56;;;;;;;7.10;5.80;;;7.80;99.90;;;;;;4983007;28;20198;-80
2022/11/29 05:11:53;;;;;;;5.90;5.30;;;7.80;99.90;;;;;;5023550;28;20213;-79
2022/11/29 05:14:26;;;;;;;7.57;5.57;;;7.90;99.90;;;;;;5024635;28;20189;-81
2022/11/29 05:17:13;;;;;;;9.23;6.03;;;8.00;99.90;;;;;;5022847;28;20165;-80
2022/11/29 05:19:42;;;;;;;5.83;5.23;;;8.00;99.90;;;;;;5014015;28;20325;-78
2022/11/29 05:22:58;;;;;;;6.43;5.70;;;7.90;99.90;;;;;;5026048;28;20705;-80
2022/11/29 05:26:07;;;;;;;5.57;5.07;;;8.00;99.90;;;;;;4921462;29;20200;-79
2022/11/29 05:28:48;;;;;;;6.90;5.40;;;8.10;99.90;;;;;;5018369;28;20190;-79
2022/11/29 05:31:37;;;;;;;5.40;4.90;;;8.10;99.90;;;;;;5021100;28;20229;-80
2022/11/29 05:34:25;;;;;;;7.23;5.47;;;8.20;99.90;;;;;;5017797;28;20192;-79
2022/11/29 05:36:57;;;;;;;5.93;5.30;;;8.00;99.90;;;;;;5021267;28;20189;-80
2022/11/29 05:39:41;;;;;;;5.37;4.87;;;7.90;99.90;;;;;;5021307;28;20181;-79
2022/11/29 05:42:22;;;;;;;8.40;5.33;;;8.00;99.90;;;;;;5021347;28;20217;-79
2022/11/29 05:45:07;;;;;;;5.80;4.73;;;8.00;99.90;;;;;;5020334;28;20208;-80
2022/11/29 05:48:03;;;;;;;6.43;5.67;;;7.90;99.90;;;;;;4992643;28;20193;-80
2022/11/29 05:50:42;;;;;;;6.40;5.13;;;8.00;99.90;;;;;;5014817;28;20186;-80
2022/11/29 05:53:07;;;;;;;7.20;5.17;;;8.00;99.90;;;;;;5021513;28;20235;-80
2022/11/29 05:56:10;;;;;;;14.10;12.93;;;8.10;99.90;;;;;;5021391;28;20255;-80
2022/11/29 05:59:05;;;;;;;6.00;5.60;;;8.20;99.90;;;;;;5020033;28;20200;-81
2022/11/29 06:01:58;;;;;;;6.10;5.50;;;8.30;99.90;;;;;;5019126;28;20213;-80
2022/11/29 06:04:44;;;;;;;5.87;4.80;;;8.20;99.90;;;;;;5024068;28;20293;-80
2022/11/29 06:07:15;;;;;;;7.90;5.40;;;8.20;99.90;;;;;;5024564;28;20255;-81
2022/11/29 06:10:01;;;;;;;5.70;5.20;;;8.00;99.90;;;;;;5025153;28;20190;-79
2022/11/29 06:12:30;;;;;;;5.67;5.17;;;8.00;99.90;;;;;;5024027;28;20227;-81
2022/11/29 06:15:23;;;;;;;6.03;5.43;;;8.10;99.90;;;;;;5012749;28;20551;-81
2022/11/29 06:18:14;;;;;;;5.77;5.17;;;8.30;99.90;;;;;;5016099;28;20193;-81
2022/11/29 06:20:59;;;;;;;6.20;5.57;;;8.10;99.90;;;;;;5007853;28;20194;-80
2022/11/29 06:23:47;;;;;;;6.23;5.63;;;8.20;99.90;;;;;;5016450;28;20221;-79
2022/11/29 06:26:16;;;;;;;17.03;14.87;;;8.20;99.90;;;;;;5014603;28;20261;-79
2022/11/29 06:29:05;;;;;;;7.80;7.00;;;8.30;99.90;;;;;;5022315;28;20598;-80
2022/11/29 06:31:37;;;;;;;7.37;5.83;;;8.30;99.90;;;;;;5019107;28;20208;-80
2022/11/29 06:34:08;;;;;;;7.37;6.20;;;8.40;99.90;;;;;;5023376;28;20317;-82
2022/11/29 06:36:37;;;;;;;9.20;7.00;;;8.40;99.90;;;;;;5016132;28;20213;-79
2022/11/29 06:39:03;;;;;;;7.37;6.63;;;8.40;99.90;;;;;;5022453;28;20193;-81
2022/11/29 06:41:29;;;;;;;7.30;6.70;;;8.40;99.90;;;;;;5019604;28;20371;-80
2022/11/29 06:43:55;;;;;;;7.97;7.17;;;8.40;99.90;;;;;;5022778;28;20210;-80
2022/11/29 06:46:29;;;;;;;7.03;6.37;;;8.50;99.90;;;;;;5023901;28;20190;-80
2022/11/29 06:49:11;;;;;;;7.23;6.53;;;8.40;99.90;;;;;;5005849;28;20201;-81
2022/11/29 06:51:50;;;;;;;9.03;6.90;;;8.30;99.90;;;;;;5019328;28;20285;-79
2022/11/29 06:54:57;;;;;;;6.83;6.13;;;8.30;99.90;;;;;;5023104;28;20183;-80
2022/11/29 06:57:56;;;;;;;8.50;7.60;;;8.30;99.90;;;;;;4927370;29;20697;-80
2022/11/29 07:00:25;;;;;;;10.37;8.17;;;8.20;99.90;;;;;;4923255;29;20268;-80
2022/11/29 07:03:15;;;;;;;8.97;7.27;;;8.20;99.90;;;;;;4977743;28;20222;-78
2022/11/29 07:05:41;;;;;;;11.87;7.97;;;8.20;99.90;;;;;;5022746;28;20187;-80
2022/11/29 07:08:12;;;;;;;8.73;7.47;;;8.20;99.90;;;;;;5022372;28;20190;-79
2022/11/29 07:10:39;;;;;;;7.80;7.00;;;8.30;99.90;;;;;;5028060;28;20190;-81
2022/11/29 07:13:05;;;;;;;8.30;7.10;;;8.30;99.90;;;;;;5023655;28;20762;-80
2022/11/29 07:15:31;;;;;;;7.90;6.07;;;8.40;99.90;;;;;;5021506;28;20180;-80
2022/11/29 07:18:06;;;;;;;9.30;7.53;;;8.40;99.90;;;;;;5016260;28;20186;-80
2022/11/29 07:21:06;;;;;;;7.60;6.80;;;8.50;99.90;;;;;;5023584;28;20183;-79
2022/11/29 07:23:55;;;;;;;7.63;6.93;;;8.50;99.90;;;;;;5022822;28;20220;-80
2022/11/29 07:26:33;;;;;;;7.60;6.90;;;8.40;99.90;;;;;;5023381;28;20202;-81
2022/11/29 07:29:10;;;;;;;8.30;7.23;;;8.40;99.90;;;;;;5021655;28;20209;-81
2022/11/29 07:32:14;;;;;;;9.50;8.60;;;8.60;99.90;;;;;;5025684;28;20297;-80
2022/11/29 07:34:51;;;;;;;9.30;8.03;;;8.60;99.90;;;;;;5022834;28;20221;-80
2022/11/29 07:37:33;;;;;;;8.40;7.50;;;8.50;99.90;;;;;;5025312;28;20661;-78
2022/11/29 07:40:05;;;;;;;9.50;7.43;;;8.60;99.90;;;;;;5025234;28;20216;-80
2022/11/29 07:42:47;;;;;;;8.73;7.80;;;8.70;99.90;;;;;;5008488;28;20219;-80
2022/11/29 07:45:24;;;;;;;7.20;6.50;;;8.60;99.90;;;;;;5016131;28;20192;-80
2022/11/29 07:47:50;;;;;;;9.00;6.97;;;8.50;99.90;;;;;;5029261;28;20201;-80
2022/11/29 07:50:16;;;;;;;7.93;7.13;;;8.60;99.90;;;;;;5021963;28;20254;-81
2022/11/29 07:52:42;;;;;;;9.93;8.87;;;8.50;99.90;;;;;;5030808;28;20253;-80
2022/11/29 07:55:19;;;;;;;10.93;7.90;;;8.40;99.90;;;;;;5033908;28;20194;-80
2022/11/29 07:57:45;;;;;;;9.63;7.90;;;8.30;99.90;;;;;;5031412;28;20202;-80
2022/11/29 08:00:11;;;;;;;9.47;7.73;;;8.60;99.90;;;;;;5026882;28;20202;-80
2022/11/29 08:02:37;;;;;;;9.07;7.90;;;8.60;99.90;;;;;;5025342;28;20215;-80
2022/11/29 08:05:03;;;;;;;11.80;9.33;;;8.60;99.90;;;;;;5011013;28;20225;-80
2022/11/29 08:07:29;;;;;;;10.30;7.83;;;8.40;99.90;;;;;;5025448;28;20236;-79
2022/11/29 08:09:55;;;;;;;9.17;7.60;;;8.40;99.90;;;;;;5034703;28;20200;-79
2022/11/29 08:12:21;;;;;;;8.80;7.03;;;8.50;99.90;;;;;;5027088;28;20229;-81
2022/11/29 08:14:46;;;;;;;10.50;7.97;;;8.50;99.90;;;;;;5024900;28;20248;-80
2022/11/29 08:17:12;;;;;;;7.77;7.07;;;8.50;99.90;;;;;;5028078;28;20200;-80
2022/11/29 08:19:38;;;;;;;7.70;6.93;;;8.50;99.90;;;;;;5023351;28;20178;-80
2022/11/29 08:22:03;;;;;;;9.70;7.13;;;8.50;99.90;;;;;;5031474;28;20739;-79
2022/11/29 08:24:29;;;;;;;8.83;7.70;;;8.60;99.90;;;;;;5009889;28;20220;-81
2022/11/29 08:26:55;;;;;;;9.40;7.93;;;8.70;99.90;;;;;;5006821;28;20195;-79
2022/11/29 08:29:20;;;;;;;8.87;7.73;;;8.60;99.90;;;;;;5026263;28;20190;-81
2022/11/29 08:31:52;;;;;;;11.53;8.80;;;8.60;99.90;;;;;;5024346;28;20224;-79
2022/11/29 08:34:18;;;;;;;9.40;8.27;;;8.70;99.90;;;;;;5023692;28;20528;-80
2022/11/29 08:36:44;;;;;;;8.80;8.00;;;8.70;99.90;;;;;;5027574;28;20190;-81
2022/11/29 08:39:09;;;;;;;9.17;8.27;;;8.70;99.90;;;;;;5025241;28;20285;-79
2022/11/29 08:41:35;;;;;;;11.87;8.40;;;8.70;99.90;;;;;;5009044;28;20286;-79
2022/11/29 08:44:04;;;;;;;9.87;8.87;;;8.70;99.90;;;;;;5024362;28;20214;-81
2022/11/29 08:49:14;;;;;;;13.17;9.93;;;8.70;99.90;;;;;;5022892;28;21074;-80
2022/11/29 08:51:40;;;;;;;10.40;9.40;;;8.60;99.90;;;;;;5009830;28;20222;-79
2022/11/29 08:54:06;;;;;;;10.30;9.00;;;8.60;99.90;;;;;;5022563;28;20187;-80
2022/11/29 08:56:32;;;;;;;11.03;9.20;;;8.60;99.90;;;;;;5008214;28;20968;-81
2022/11/29 08:58:57;;;;;;;10.07;9.07;;;8.60;99.90;;;;;;5024731;28;20195;-78
2022/11/29 09:01:23;;;;;;;10.93;9.00;;;8.70;99.90;;;;;;5010872;28;20223;-79
2022/11/29 09:03:58;;;;;;;9.90;8.90;;;8.80;99.90;;;;;;5024611;28;21476;-79
2022/11/29 09:06:25;;;;;;;11.07;9.00;;;8.80;99.90;;;;;;5029687;28;20198;-79
2022/11/29 09:08:55;;;;;;;10.37;9.37;;;8.70;99.90;;;;;;5013415;28;20190;-78
2022/11/29 09:11:22;;;;;;;10.80;8.77;;;8.80;99.90;;;;;;5027870;28;20221;-81
2022/11/29 09:13:51;;;;;;;10.83;9.83;;;8.80;99.90;;;;;;5027108;28;20190;-80
2022/11/29 09:16:19;;;;;;;12.70;8.93;;;8.80;99.90;;;;;;5032298;28;20266;-80
2022/11/29 09:18:47;;;;;;;10.80;9.80;;;8.80;99.90;;;;;;5031957;28;20195;-80
2022/11/29 09:21:14;;;;;;;10.23;9.23;;;8.80;99.90;;;;;;5032890;28;20225;-81
2022/11/29 09:23:42;;;;;;;10.70;9.80;;;8.80;99.90;;;;;;5030829;28;20223;-80
2022/11/29 09:26:10;;;;;;;10.67;9.63;;;8.80;99.90;;;;;;5029783;28;20209;-80
2022/11/29 09:28:36;;;;;;;11.40;10.23;;;8.70;99.90;;;;;;5029003;28;20202;-80
2022/11/29 09:31:11;;;;;;;11.03;9.93;;;8.90;99.90;;;;;;5009293;28;20189;-80
2022/11/29 09:33:38;;;;;;;11.10;10.10;;;8.90;99.90;;;;;;5016684;28;20202;-80
2022/11/29 09:36:05;;;;;;;11.70;10.50;;;8.80;99.90;;;;;;5025172;28;20169;-80
2022/11/29 09:38:32;;;;;;;11.53;10.43;;;8.90;99.90;;;;;;5009339;28;20195;-80
2022/11/29 09:41:34;;;;;;;11.23;10.13;;;8.90;99.90;;;;;;5030731;28;20785;-81
2022/11/29 09:44:05;;;;;;;11.57;10.47;;;8.90;99.90;;;;;;5017347;28;20270;-80
2022/11/29 09:46:59;;;;;;;11.60;10.60;;;9.00;99.90;;;;;;5015511;28;20203;-81
2022/11/29 09:49:50;;;;;;;10.87;9.97;;;9.00;99.90;;;;;;5023414;28;20214;-80
2022/11/29 09:52:35;;;;;;;11.73;10.60;;;9.00;99.90;;;;;;5029993;28;20223;-79
2022/11/29 09:55:00;;;;;;;12.00;10.83;;;9.00;99.90;;;;;;5027427;28;20197;-80
2022/11/29 09:57:28;;;;;;;11.73;10.60;;;9.00;99.90;;;;;;5007541;28;20186;-80
2022/11/29 10:00:00;;;;;;;11.73;10.63;;;8.90;99.90;;;;;;5031178;28;20284;-80
2022/11/29 10:02:30;;;;;;;13.03;11.80;;;8.90;99.90;;;;;;5007508;28;20218;-79
2022/11/29 10:05:12;;;;;;;11.80;10.70;;;8.90;99.90;;;;;;5028680;28;20248;-80
2022/11/29 10:07:59;;;;;;;10.97;9.97;;;9.00;99.90;;;;;;5018048;28;20252;-80
2022/11/29 10:10:36;;;;;;;11.93;10.80;;;9.00;99.90;;;;;;5032848;28;20222;-79
2022/11/29 10:13:29;;;;;;;11.90;10.90;;;9.10;99.90;;;;;;5029592;28;20206;-81
2022/11/29 10:16:24;;;;;;;12.60;11.50;;;9.20;99.90;;;;;;5030616;28;20199;-80
2022/11/29 10:19:03;;;;;;;11.40;10.20;;;9.10;99.90;;;;;;5018870;28;20281;-79
2022/11/29 10:21:35;;;;;;;11.53;10.40;;;9.20;99.90;;;;;;5019153;28;20219;-79
2022/11/29 10:24:08;;;;;;;11.20;10.20;;;9.30;99.90;;;;;;5026888;28;20323;-82
2022/11/29 10:26:34;;;;;;;11.60;10.60;;;9.30;99.90;;;;;;5034913;28;20221;-80
2022/11/29 10:28:59;;;;;;;11.03;10.03;;;9.30;99.90;;;;;;5030960;28;20676;-79
2022/11/29 10:31:31;;;;;;;12.27;11.10;;;9.30;99.90;;;;;;5026865;28;20208;-81
2022/11/29 10:33:59;;;;;;;12.00;10.87;;;9.30;99.90;;;;;;5027238;28;20184;-79
2022/11/29 10:36:39;;;;;;;11.83;10.73;;;9.30;99.90;;;;;;5030469;28;20689;-80
2022/11/29 10:39:12;;;;;;;11.77;10.63;;;9.40;99.90;;;;;;5032295;28;20262;-80
2022/11/29 10:41:38;;;;;;;12.07;10.97;;;9.50;99.90;;;;;;5032845;28;20199;-80
2022/11/29 10:44:04;;;;;;;12.77;11.57;;;9.50;99.90;;;;;;5034796;28;20278;-79
2022/11/29 10:46:32;;;;;;;11.80;10.80;;;9.40;99.90;;;;;;5011786;28;20194;-80
2022/11/29 10:49:00;;;;;;;11.63;10.67;;;9.30;99.90;;;;;;5026530;28;20188;-80
2022/11/29 10:51:27;;;;;;;12.37;11.10;;;9.40;99.90;;;;;;5026492;28;20216;-81
2022/11/29 10:53:54;;;;;;;11.67;10.57;;;9.50;99.90;;;;;;5012847;28;20195;-79
2022/11/29 10:56:30;;;;;;;11.43;10.43;;;9.50;99.90;;;;;;5029365;28;20269;-80
2022/11/29 10:59:06;;;;;;;11.33;10.43;;;9.60;99.90;;;;;;5028820;28;20227;-80
2022/11/29 11:01:41;;;;;;;11.17;10.17;;;9.60;99.90;;;;;;5029835;28;20229;-80
2022/11/29 11:04:13;;;;;;;10.73;9.73;;;9.50;99.90;;;;;;5033697;28;20218;-79
2022/11/29 11:06:55;;;;;;;11.03;9.93;;;9.50;99.90;;;;;;5022224;28;20664;-80
2022/11/29 11:09:34;;;;;;;11.20;10.30;;;9.50;99.90;;;;;;5029481;28;20231;-80
2022/11/29 11:12:07;;;;;;;10.97;9.93;;;9.50;99.90;;;;;;5037523;28;20194;-80
2022/11/29 11:14:36;;;;;;;11.47;10.37;;;9.50;99.90;;;;;;5019214;28;20185;-79
2022/11/29 11:17:31;;;;;;;11.60;10.40;;;9.60;99.90;;;;;;5036463;28;20243;-79
2022/11/29 11:20:26;;;;;;;11.57;10.47;;;9.60;99.90;;;;;;5036594;28;20583;-80
2022/11/29 11:23:01;;;;;;;12.73;11.27;;;9.60;99.90;;;;;;5032690;28;20237;-81
2022/11/29 11:25:29;;;;;;;11.67;10.57;;;9.60;99.90;;;;;;5017731;28;20210;-80
2022/11/29 11:27:57;;;;;;;10.57;9.73;;;9.60;99.90;;;;;;5033110;28;20266;-80
2022/11/29 11:30:27;;;;;;;12.30;11.17;;;9.50;99.90;;;;;;5035995;28;20196;-80
2022/11/29 11:33:07;;;;;;;12.30;11.10;;;9.50;99.90;;;;;;5018040;28;20302;-79
2022/11/29 11:35:33;;;;;;;12.23;11.03;;;9.60;99.90;;;;;;5022807;28;20199;-81
2022/11/29 11:37:58;;;;;;;12.07;10.97;;;9.60;99.90;;;;;;5015947;28;20983;-81
2022/11/29 11:40:28;;;;;;;12.73;11.50;;;9.60;99.90;;;;;;5027029;28;20211;-79
2022/11/29 11:42:57;;;;;;;12.33;11.13;;;9.60;99.90;;;;;;5034369;28;20220;-80
2022/11/29 11:45:37;;;;;;;12.37;11.17;;;9.50;99.90;;;;;;5036805;28;20204;-81
2022/11/29 11:48:12;;;;;;;14.03;12.53;;;9.40;99.90;;;;;;5019655;28;20213;-79
2022/11/29 11:50:53;;;;;;;12.80;11.40;;;9.50;99.90;;;;;;5020804;28;20191;-80
2022/11/29 11:53:37;;;;;;;12.40;11.20;;;9.60;99.90;;;;;;5016201;28;20194;-80
2022/11/29 11:56:05;;;;;;;13.07;11.77;;;9.50;99.90;;;;;;5035040;28;20195;-80
2022/11/29 11:58:35;;;;;;;12.80;11.67;;;9.40;99.90;;;;;;5025356;28;20224;-81
2022/11/29 12:01:26;;;;;;;13.70;12.33;;;9.50;99.90;;;;;;5032961;28;20209;-80
2022/11/29 12:04:22;;;;;;;13.90;12.50;;;9.40;99.90;;;;;;5030201;28;20222;-78
2022/11/29 12:06:50;;;;;;;12.67;11.20;;;9.40;99.90;;;;;;5022444;28;20191;-79
2022/11/29 12:09:39;;;;;;;14.30;13.00;;;9.50;99.90;;;;;;5029562;28;20184;-80
2022/11/29 12:12:27;;;;;;;11.77;10.63;;;9.50;99.90;;;;;;5030508;28;20210;-79
2022/11/29 12:15:07;;;;;;;11.30;10.30;;;9.40;99.90;;;;;;5030562;28;20288;-80
2022/11/29 12:17:41;;;;;;;11.20;10.20;;;9.30;99.90;;;;;;5030813;28;20198;-80
2022/11/29 12:20:27;;;;;;;12.53;11.33;;;9.40;99.90;;;;;;5040444;28;20174;-80
2022/11/29 12:22:52;;;;;;;12.23;11.03;;;9.40;99.90;;;;;;5016639;28;20218;-80
2022/11/29 12:25:47;;;;;;;13.20;11.67;;;9.50;99.90;;;;;;5035183;28;20202;-80
2022/11/29 12:28:16;;;;;;;12.87;11.57;;;9.50;99.90;;;;;;5020026;28;20210;-79
2022/11/29 12:31:11;;;;;;;11.90;10.80;;;9.50;99.90;;;;;;5032043;28;20193;-79
2022/11/29 12:33:56;;;;;;;13.50;12.10;;;9.60;99.90;;;;;;5031256;28;20197;-81
2022/11/29 12:36:47;;;;;;;13.30;12.00;;;9.60;99.90;;;;;;5019621;28;20200;-81
2022/11/29 12:39:15;;;;;;;14.93;13.63;;;9.70;99.90;;;;;;5034943;28;20194;-79
2022/11/29 12:42:10;;;;;;;12.03;11.00;;;9.70;99.90;;;;;;5034908;28;20215;-81
2022/11/29 12:44:55;;;;;;;14.47;13.07;;;9.70;99.90;;;;;;5029386;28;20193;-80
2022/11/29 12:47:34;;;;;;;15.33;13.73;;;9.70;99.90;;;;;;5032856;28;20172;-80
2022/11/29 12:50:52;;;;;;;19.23;17.00;;;9.60;99.90;;;;;;5032909;28;20403;-78
2022/11/29 12:53:43;;;;;;;18.53;16.60;;;9.70;99.90;;;;;;5001631;28;20219;-80
2022/11/29 12:56:26;;;;;;;13.73;12.43;;;9.70;99.90;;;;;;5032984;28;20236;-80
2022/11/29 12:59:20;;;;;;;14.87;13.47;;;9.70;99.90;;;;;;5031857;28;20784;-80
2022/11/29 13:02:07;;;;;;;13.43;12.13;;;9.80;99.90;;;;;;5022526;28;20279;-80
2022/11/29 13:04:44;;;;;;;19.83;13.60;;;9.80;99.90;;;;;;5027364;28;20227;-80
2022/11/29 13:07:35;;;;;;;18.87;15.03;;;9.90;99.90;;;;;;5031834;28;20196;-79
2022/11/29 13:10:27;;;;;;;16.50;14.90;;;9.80;99.90;;;;;;5028697;28;20184;-79
2022/11/29 13:12:58;;;;;;;16.07;14.40;;;9.80;99.90;;;;;;5027619;28;20232;-79
2022/11/29 13:15:34;;;;;;;15.90;14.30;;;9.70;99.90;;;;;;5027175;28;20195;-79
2022/11/29 13:18:08;;;;;;;16.53;14.97;;;9.70;99.90;;;;;;5023052;28;20184;-78
2022/11/29 13:20:49;;;;;;;15.80;13.97;;;9.70;99.90;;;;;;5027448;28;20187;-80
2022/11/29 13:23:43;;;;;;;15.97;14.30;;;9.70;99.90;;;;;;5030426;28;20219;-80
2022/11/29 13:26:11;;;;;;;15.70;13.77;;;9.70;99.90;;;;;;5011590;28;20264;-80
2022/11/29 13:28:40;;;;;;;16.03;14.50;;;9.70;99.90;;;;;;5014477;28;20191;-79
2022/11/29 13:31:11;;;;;;;16.43;14.70;;;9.60;99.90;;;;;;5027154;28;20199;-80
2022/11/29 13:33:58;;;;;;;16.87;15.00;;;9.60;99.90;;;;;;5026273;28;20238;-79
2022/11/29 13:36:33;;;;;;;17.13;14.77;;;9.60;99.90;;;;;;5018612;28;20200;-80
2022/11/29 13:39:22;;;;;;;15.30;13.80;;;9.70;99.90;;;;;;5026489;28;20198;-78